sensor_id;sensor_type;location;lat;lon;timestamp;P1;durP1;ratioP1;P2;durP2;ratioP2
14205;SDS011;7186;48.800;9.216;2022-07-03T00:02:22;3.47;;;3.00;;
14205;SDS011;7186;48.800;9.216;2022-07-03T00:04:48;5.00;;;3.00;;
14205;SDS011;7186;48.800;9.216;2022-07-03T00:07:13;4.17;;;3.40;;
14205;SDS011;7186;48.800;9.216;2022-07-03T00:09:38;4.97;;;3.40;;
14205;SDS011;7186;48.800;9.216;2022-07-03T00:12:04;4.77;;;3.23;;
14205;SDS011;7186;48.800;9.216;2022-07-03T00:14:29;4.33;;;3.27;;
14205;SDS011;7186;48.800;9.216;2022-07-03T00:16:54;6.40;;;3.30;;
14205;SDS011;7186;48.800;9.216;2022-07-03T00:19:20;3.60;;;3.17;;
14205;SDS011;7186;48.800;9.216;2022-07-03T00:21:46;5.23;;;3.50;;
14205;SDS011;7186;48.800;9.216;2022-07-03T00:27:09;4.53;;;3.30;;
14205;SDS011;7186;48.800;9.216;2022-07-03T00:29:40;3.83;;;3.23;;
14205;SDS011;7186;48.800;9.216;2022-07-03T00:32:09;7.70;;;3.00;;
14205;SDS011;7186;48.800;9.216;2022-07-03T00:34:35;4.03;;;3.20;;
14205;SDS011;7186;48.800;9.216;2022-07-03T00:37:00;5.03;;;3.20;;
14205;SDS011;7186;48.800;9.216;2022-07-03T00:39:26;4.87;;;3.50;;
14205;SDS011;7186;48.800;9.216;2022-07-03T00:41:59;5.70;;;3.27;;
14205;SDS011;7186;48.800;9.216;2022-07-03T00:44:25;3.47;;;2.90;;
14205;SDS011;7186;48.800;9.216;2022-07-03T00:46:50;3.50;;;3.03;;
14205;SDS011;7186;48.800;9.216;2022-07-03T00:49:17;3.97;;;3.47;;
14205;SDS011;7186;48.800;9.216;2022-07-03T00:51:43;4.53;;;3.07;;
14205;SDS011;7186;48.800;9.216;2022-07-03T00:54:11;3.87;;;3.00;;
14205;SDS011;7186;48.800;9.216;2022-07-03T00:56:41;4.23;;;3.30;;
14205;SDS011;7186;48.800;9.216;2022-07-03T00:59:11;4.63;;;3.17;;
14205;SDS011;7186;48.800;9.216;2022-07-03T01:01:37;3.03;;;2.73;;
14205;SDS011;7186;48.800;9.216;2022-07-03T01:06:35;3.97;;;2.77;;
14205;SDS011;7186;48.800;9.216;2022-07-03T01:09:04;3.03;;;2.80;;
14205;SDS011;7186;48.800;9.216;2022-07-03T01:11:37;3.67;;;2.90;;
14205;SDS011;7186;48.800;9.216;2022-07-03T01:14:27;3.93;;;3.20;;
14205;SDS011;7186;48.800;9.216;2022-07-03T01:16:57;3.40;;;3.10;;
14205;SDS011;7186;48.800;9.216;2022-07-03T01:24:55;5.30;;;3.17;;
14205;SDS011;7186;48.800;9.216;2022-07-03T01:27:23;3.17;;;2.80;;
14205;SDS011;7186;48.800;9.216;2022-07-03T01:30:13;4.13;;;2.93;;
14205;SDS011;7186;48.800;9.216;2022-07-03T01:32:38;3.63;;;3.33;;
14205;SDS011;7186;48.800;9.216;2022-07-03T01:35:04;4.27;;;2.80;;
14205;SDS011;7186;48.800;9.216;2022-07-03T01:37:31;3.77;;;3.17;;
14205;SDS011;7186;48.800;9.216;2022-07-03T01:39:58;4.63;;;3.30;;
14205;SDS011;7186;48.800;9.216;2022-07-03T01:42:24;4.97;;;3.20;;
14205;SDS011;7186;48.800;9.216;2022-07-03T01:44:53;4.47;;;2.90;;
14205;SDS011;7186;48.800;9.216;2022-07-03T01:47:20;3.43;;;3.07;;
14205;SDS011;7186;48.800;9.216;2022-07-03T01:49:47;3.00;;;2.70;;
14205;SDS011;7186;48.800;9.216;2022-07-03T01:52:13;6.30;;;2.97;;
14205;SDS011;7186;48.800;9.216;2022-07-03T01:54:39;7.00;;;3.03;;
14205;SDS011;7186;48.800;9.216;2022-07-03T01:57:06;5.87;;;3.00;;
14205;SDS011;7186;48.800;9.216;2022-07-03T01:59:32;4.90;;;3.13;;
14205;SDS011;7186;48.800;9.216;2022-07-03T02:04:28;4.43;;;2.70;;
14205;SDS011;7186;48.800;9.216;2022-07-03T02:09:22;2.90;;;2.60;;
14205;SDS011;7186;48.800;9.216;2022-07-03T02:11:49;4.30;;;3.37;;
14205;SDS011;7186;48.800;9.216;2022-07-03T02:20:13;4.63;;;2.97;;
14205;SDS011;7186;48.800;9.216;2022-07-03T02:22:14;3.73;;;3.33;;
14205;SDS011;7186;48.800;9.216;2022-07-03T02:24:42;3.93;;;2.80;;
14205;SDS011;7186;48.800;9.216;2022-07-03T02:27:18;4.93;;;2.80;;
14205;SDS011;7186;48.800;9.216;2022-07-03T02:29:49;3.63;;;2.90;;
14205;SDS011;7186;48.800;9.216;2022-07-03T02:32:17;4.53;;;3.27;;
14205;SDS011;7186;48.800;9.216;2022-07-03T02:34:45;4.83;;;2.73;;
14205;SDS011;7186;48.800;9.216;2022-07-03T02:37:15;3.83;;;2.83;;
14205;SDS011;7186;48.800;9.216;2022-07-03T02:39:45;7.00;;;3.23;;
14205;SDS011;7186;48.800;9.216;2022-07-03T02:42:48;3.20;;;2.90;;
14205;SDS011;7186;48.800;9.216;2022-07-03T02:45:05;3.77;;;2.80;;
14205;SDS011;7186;48.800;9.216;2022-07-03T02:47:43;3.47;;;2.77;;
14205;SDS011;7186;48.800;9.216;2022-07-03T02:50:15;3.70;;;2.60;;
14205;SDS011;7186;48.800;9.216;2022-07-03T03:03:20;7.23;;;3.17;;
14205;SDS011;7186;48.800;9.216;2022-07-03T03:05:50;3.97;;;3.30;;
14205;SDS011;7186;48.800;9.216;2022-07-03T03:08:35;3.50;;;3.10;;
14205;SDS011;7186;48.800;9.216;2022-07-03T03:11:05;4.70;;;3.10;;
14205;SDS011;7186;48.800;9.216;2022-07-03T03:13:31;4.97;;;3.50;;
14205;SDS011;7186;48.800;9.216;2022-07-03T03:18:26;5.53;;;3.30;;
14205;SDS011;7186;48.800;9.216;2022-07-03T03:20:52;8.13;;;3.30;;
14205;SDS011;7186;48.800;9.216;2022-07-03T03:23:33;4.17;;;2.93;;
14205;SDS011;7186;48.800;9.216;2022-07-03T03:25:59;4.57;;;3.10;;
14205;SDS011;7186;48.800;9.216;2022-07-03T03:28:25;3.97;;;3.07;;
14205;SDS011;7186;48.800;9.216;2022-07-03T03:30:50;8.03;;;3.33;;
14205;SDS011;7186;48.800;9.216;2022-07-03T03:33:16;8.20;;;3.53;;
14205;SDS011;7186;48.800;9.216;2022-07-03T03:35:41;22.00;;;4.10;;
14205;SDS011;7186;48.800;9.216;2022-07-03T03:38:07;8.97;;;3.70;;
14205;SDS011;7186;48.800;9.216;2022-07-03T03:40:32;10.97;;;4.00;;
14205;SDS011;7186;48.800;9.216;2022-07-03T03:42:58;11.03;;;3.80;;
14205;SDS011;7186;48.800;9.216;2022-07-03T03:45:23;21.53;;;4.93;;
14205;SDS011;7186;48.800;9.216;2022-07-03T03:47:48;11.73;;;4.17;;
14205;SDS011;7186;48.800;9.216;2022-07-03T03:50:13;14.90;;;4.17;;
14205;SDS011;7186;48.800;9.216;2022-07-03T03:52:39;17.40;;;4.40;;
14205;SDS011;7186;48.800;9.216;2022-07-03T03:55:04;12.00;;;3.73;;
14205;SDS011;7186;48.800;9.216;2022-07-03T03:57:30;11.90;;;3.20;;
14205;SDS011;7186;48.800;9.216;2022-07-03T03:59:55;20.73;;;4.53;;
14205;SDS011;7186;48.800;9.216;2022-07-03T04:02:21;14.90;;;4.07;;
14205;SDS011;7186;48.800;9.216;2022-07-03T04:04:46;19.20;;;4.00;;
14205;SDS011;7186;48.800;9.216;2022-07-03T04:07:12;23.43;;;4.30;;
14205;SDS011;7186;48.800;9.216;2022-07-03T04:09:37;9.33;;;3.00;;
14205;SDS011;7186;48.800;9.216;2022-07-03T04:12:02;15.00;;;3.30;;
14205;SDS011;7186;48.800;9.216;2022-07-03T04:14:27;22.00;;;4.20;;
14205;SDS011;7186;48.800;9.216;2022-07-03T04:16:53;31.97;;;4.43;;
14205;SDS011;7186;48.800;9.216;2022-07-03T04:19:18;42.57;;;6.20;;
14205;SDS011;7186;48.800;9.216;2022-07-03T04:21:43;22.17;;;5.13;;
14205;SDS011;7186;48.800;9.216;2022-07-03T04:24:08;7.47;;;3.20;;
14205;SDS011;7186;48.800;9.216;2022-07-03T04:26:33;4.03;;;2.93;;
14205;SDS011;7186;48.800;9.216;2022-07-03T04:28:59;11.93;;;3.20;;
14205;SDS011;7186;48.800;9.216;2022-07-03T04:31:24;6.17;;;3.23;;
14205;SDS011;7186;48.800;9.216;2022-07-03T04:33:49;19.37;;;4.73;;
14205;SDS011;7186;48.800;9.216;2022-07-03T04:36:15;10.40;;;3.13;;
14205;SDS011;7186;48.800;9.216;2022-07-03T04:38:41;13.90;;;4.23;;
14205;SDS011;7186;48.800;9.216;2022-07-03T04:41:07;5.33;;;3.00;;
14205;SDS011;7186;48.800;9.216;2022-07-03T04:43:32;6.40;;;3.33;;
14205;SDS011;7186;48.800;9.216;2022-07-03T04:45:58;5.23;;;3.10;;
14205;SDS011;7186;48.800;9.216;2022-07-03T04:48:23;8.30;;;3.17;;
14205;SDS011;7186;48.800;9.216;2022-07-03T04:50:48;6.50;;;3.00;;
14205;SDS011;7186;48.800;9.216;2022-07-03T04:53:13;4.53;;;2.90;;
14205;SDS011;7186;48.800;9.216;2022-07-03T04:55:38;3.60;;;2.90;;
14205;SDS011;7186;48.800;9.216;2022-07-03T04:58:04;3.77;;;2.70;;
14205;SDS011;7186;48.800;9.216;2022-07-03T05:00:29;4.50;;;2.83;;
14205;SDS011;7186;48.800;9.216;2022-07-03T05:02:54;4.20;;;3.00;;
14205;SDS011;7186;48.800;9.216;2022-07-03T05:05:19;4.83;;;2.57;;
14205;SDS011;7186;48.800;9.216;2022-07-03T05:07:44;3.57;;;2.83;;
14205;SDS011;7186;48.800;9.216;2022-07-03T05:10:10;6.73;;;3.10;;
14205;SDS011;7186;48.800;9.216;2022-07-03T05:12:35;5.20;;;3.43;;
14205;SDS011;7186;48.800;9.216;2022-07-03T05:15:00;3.23;;;2.83;;
14205;SDS011;7186;48.800;9.216;2022-07-03T05:17:26;3.00;;;2.67;;
14205;SDS011;7186;48.800;9.216;2022-07-03T05:19:51;4.23;;;2.80;;
14205;SDS011;7186;48.800;9.216;2022-07-03T05:22:36;3.07;;;2.70;;
14205;SDS011;7186;48.800;9.216;2022-07-03T05:25:01;3.00;;;2.80;;
14205;SDS011;7186;48.800;9.216;2022-07-03T05:27:26;2.73;;;2.47;;
14205;SDS011;7186;48.800;9.216;2022-07-03T05:29:52;5.47;;;2.93;;
14205;SDS011;7186;48.800;9.216;2022-07-03T05:32:17;3.80;;;2.93;;
14205;SDS011;7186;48.800;9.216;2022-07-03T05:34:42;3.70;;;3.00;;
14205;SDS011;7186;48.800;9.216;2022-07-03T05:37:07;3.63;;;2.97;;
14205;SDS011;7186;48.800;9.216;2022-07-03T05:39:32;5.73;;;2.90;;
14205;SDS011;7186;48.800;9.216;2022-07-03T05:41:58;3.57;;;2.80;;
14205;SDS011;7186;48.800;9.216;2022-07-03T05:44:23;3.73;;;2.80;;
14205;SDS011;7186;48.800;9.216;2022-07-03T05:46:48;4.27;;;2.80;;
14205;SDS011;7186;48.800;9.216;2022-07-03T05:49:13;3.17;;;2.60;;
14205;SDS011;7186;48.800;9.216;2022-07-03T05:51:39;3.87;;;3.00;;
14205;SDS011;7186;48.800;9.216;2022-07-03T05:54:04;2.50;;;2.30;;
14205;SDS011;7186;48.800;9.216;2022-07-03T05:56:29;3.03;;;2.73;;
14205;SDS011;7186;48.800;9.216;2022-07-03T05:58:54;5.23;;;2.87;;
14205;SDS011;7186;48.800;9.216;2022-07-03T06:01:20;4.87;;;2.93;;
14205;SDS011;7186;48.800;9.216;2022-07-03T06:03:45;4.70;;;2.83;;
14205;SDS011;7186;48.800;9.216;2022-07-03T06:06:10;2.47;;;2.27;;
14205;SDS011;7186;48.800;9.216;2022-07-03T06:08:35;4.33;;;2.50;;
14205;SDS011;7186;48.800;9.216;2022-07-03T06:11:01;2.70;;;2.50;;
14205;SDS011;7186;48.800;9.216;2022-07-03T06:13:26;3.17;;;2.87;;
14205;SDS011;7186;48.800;9.216;2022-07-03T06:15:51;2.37;;;2.27;;
14205;SDS011;7186;48.800;9.216;2022-07-03T06:18:17;2.70;;;2.50;;
14205;SDS011;7186;48.800;9.216;2022-07-03T06:20:42;2.87;;;2.67;;
14205;SDS011;7186;48.800;9.216;2022-07-03T06:23:07;3.73;;;2.60;;
14205;SDS011;7186;48.800;9.216;2022-07-03T06:25:32;2.87;;;2.67;;
14205;SDS011;7186;48.800;9.216;2022-07-03T06:27:58;3.60;;;2.90;;
14205;SDS011;7186;48.800;9.216;2022-07-03T06:30:23;4.07;;;2.87;;
14205;SDS011;7186;48.800;9.216;2022-07-03T06:32:48;7.47;;;2.60;;
14205;SDS011;7186;48.800;9.216;2022-07-03T06:35:13;3.23;;;2.83;;
14205;SDS011;7186;48.800;9.216;2022-07-03T06:37:39;3.10;;;2.80;;
14205;SDS011;7186;48.800;9.216;2022-07-03T06:40:04;3.83;;;2.60;;
14205;SDS011;7186;48.800;9.216;2022-07-03T06:42:30;3.60;;;2.60;;
14205;SDS011;7186;48.800;9.216;2022-07-03T06:44:55;3.37;;;2.60;;
14205;SDS011;7186;48.800;9.216;2022-07-03T06:47:20;3.23;;;2.80;;
14205;SDS011;7186;48.800;9.216;2022-07-03T06:49:45;4.90;;;2.70;;
14205;SDS011;7186;48.800;9.216;2022-07-03T06:52:10;3.80;;;2.60;;
14205;SDS011;7186;48.800;9.216;2022-07-03T06:54:36;4.13;;;2.27;;
14205;SDS011;7186;48.800;9.216;2022-07-03T06:57:04;4.60;;;2.50;;
14205;SDS011;7186;48.800;9.216;2022-07-03T06:59:30;3.30;;;3.00;;
14205;SDS011;7186;48.800;9.216;2022-07-03T07:01:55;3.30;;;2.53;;
14205;SDS011;7186;48.800;9.216;2022-07-03T07:04:20;2.63;;;2.43;;
14205;SDS011;7186;48.800;9.216;2022-07-03T07:06:45;3.23;;;2.53;;
14205;SDS011;7186;48.800;9.216;2022-07-03T07:09:10;3.37;;;2.40;;
14205;SDS011;7186;48.800;9.216;2022-07-03T07:11:36;3.60;;;2.53;;
14205;SDS011;7186;48.800;9.216;2022-07-03T07:14:01;2.67;;;2.47;;
14205;SDS011;7186;48.800;9.216;2022-07-03T07:16:26;2.67;;;2.40;;
14205;SDS011;7186;48.800;9.216;2022-07-03T07:18:51;2.53;;;2.10;;
14205;SDS011;7186;48.800;9.216;2022-07-03T07:21:17;3.23;;;2.43;;
14205;SDS011;7186;48.800;9.216;2022-07-03T07:23:42;3.77;;;2.87;;
14205;SDS011;7186;48.800;9.216;2022-07-03T07:26:07;2.30;;;2.10;;
14205;SDS011;7186;48.800;9.216;2022-07-03T07:28:32;3.00;;;2.30;;
14205;SDS011;7186;48.800;9.216;2022-07-03T07:30:59;2.40;;;2.20;;
14205;SDS011;7186;48.800;9.216;2022-07-03T07:33:25;3.70;;;2.43;;
14205;SDS011;7186;48.800;9.216;2022-07-03T07:35:50;2.67;;;2.47;;
14205;SDS011;7186;48.800;9.216;2022-07-03T07:38:15;2.90;;;2.03;;
14205;SDS011;7186;48.800;9.216;2022-07-03T07:40:41;3.37;;;2.30;;
14205;SDS011;7186;48.800;9.216;2022-07-03T07:43:06;2.77;;;2.20;;
14205;SDS011;7186;48.800;9.216;2022-07-03T07:45:31;2.17;;;1.97;;
14205;SDS011;7186;48.800;9.216;2022-07-03T07:47:57;2.93;;;2.13;;
14205;SDS011;7186;48.800;9.216;2022-07-03T07:50:22;3.27;;;2.00;;
14205;SDS011;7186;48.800;9.216;2022-07-03T07:52:47;2.10;;;1.90;;
14205;SDS011;7186;48.800;9.216;2022-07-03T07:55:12;2.53;;;2.10;;
14205;SDS011;7186;48.800;9.216;2022-07-03T07:57:38;4.33;;;2.03;;
14205;SDS011;7186;48.800;9.216;2022-07-03T08:00:05;2.07;;;1.97;;
14205;SDS011;7186;48.800;9.216;2022-07-03T08:02:30;2.10;;;1.93;;
14205;SDS011;7186;48.800;9.216;2022-07-03T08:05:14;1.90;;;1.80;;
14205;SDS011;7186;48.800;9.216;2022-07-03T08:07:58;4.67;;;2.17;;
14205;SDS011;7186;48.800;9.216;2022-07-03T08:10:24;2.00;;;1.80;;
14205;SDS011;7186;48.800;9.216;2022-07-03T08:12:49;2.90;;;1.90;;
14205;SDS011;7186;48.800;9.216;2022-07-03T08:15:15;2.17;;;1.97;;
14205;SDS011;7186;48.800;9.216;2022-07-03T08:17:40;3.37;;;1.90;;
14205;SDS011;7186;48.800;9.216;2022-07-03T08:20:07;1.63;;;1.40;;
14205;SDS011;7186;48.800;9.216;2022-07-03T08:22:33;3.67;;;1.47;;
14205;SDS011;7186;48.800;9.216;2022-07-03T08:24:59;2.47;;;1.50;;
14205;SDS011;7186;48.800;9.216;2022-07-03T08:27:24;1.97;;;1.57;;
14205;SDS011;7186;48.800;9.216;2022-07-03T08:29:49;6.23;;;1.70;;
14205;SDS011;7186;48.800;9.216;2022-07-03T08:32:14;1.40;;;1.30;;
14205;SDS011;7186;48.800;9.216;2022-07-03T08:34:39;1.73;;;1.50;;
14205;SDS011;7186;48.800;9.216;2022-07-03T08:37:05;2.67;;;1.40;;
14205;SDS011;7186;48.800;9.216;2022-07-03T08:39:30;2.23;;;1.23;;
14205;SDS011;7186;48.800;9.216;2022-07-03T08:41:55;3.23;;;1.30;;
14205;SDS011;7186;48.800;9.216;2022-07-03T08:44:21;1.40;;;1.30;;
14205;SDS011;7186;48.800;9.216;2022-07-03T08:46:47;2.50;;;1.23;;
14205;SDS011;7186;48.800;9.216;2022-07-03T08:49:14;3.80;;;1.30;;
14205;SDS011;7186;48.800;9.216;2022-07-03T08:51:40;1.10;;;1.10;;
14205;SDS011;7186;48.800;9.216;2022-07-03T08:54:05;1.50;;;1.40;;
14205;SDS011;7186;48.800;9.216;2022-07-03T08:56:31;1.20;;;1.20;;
14205;SDS011;7186;48.800;9.216;2022-07-03T08:58:57;1.63;;;1.30;;
14205;SDS011;7186;48.800;9.216;2022-07-03T09:01:23;1.57;;;1.30;;
14205;SDS011;7186;48.800;9.216;2022-07-03T09:03:48;1.40;;;1.30;;
14205;SDS011;7186;48.800;9.216;2022-07-03T09:06:15;1.67;;;1.20;;
14205;SDS011;7186;48.800;9.216;2022-07-03T09:08:41;1.17;;;1.17;;
14205;SDS011;7186;48.800;9.216;2022-07-03T09:11:06;1.10;;;1.10;;
14205;SDS011;7186;48.800;9.216;2022-07-03T09:13:31;1.87;;;1.27;;
14205;SDS011;7186;48.800;9.216;2022-07-03T09:15:58;1.40;;;1.30;;
14205;SDS011;7186;48.800;9.216;2022-07-03T09:18:39;1.33;;;1.23;;
14205;SDS011;7186;48.800;9.216;2022-07-03T09:21:05;1.37;;;1.27;;
14205;SDS011;7186;48.800;9.216;2022-07-03T09:23:37;1.30;;;1.20;;
14205;SDS011;7186;48.800;9.216;2022-07-03T09:26:03;2.00;;;1.17;;
14205;SDS011;7186;48.800;9.216;2022-07-03T09:28:48;2.53;;;1.17;;
14205;SDS011;7186;48.800;9.216;2022-07-03T09:31:16;4.80;;;1.10;;
14205;SDS011;7186;48.800;9.216;2022-07-03T09:33:51;2.27;;;1.10;;
14205;SDS011;7186;48.800;9.216;2022-07-03T09:36:17;1.40;;;1.30;;
14205;SDS011;7186;48.800;9.216;2022-07-03T09:38:45;1.40;;;1.30;;
14205;SDS011;7186;48.800;9.216;2022-07-03T09:41:10;1.80;;;1.10;;
14205;SDS011;7186;48.800;9.216;2022-07-03T09:43:36;1.30;;;1.20;;
14205;SDS011;7186;48.800;9.216;2022-07-03T09:46:02;2.63;;;1.43;;
14205;SDS011;7186;48.800;9.216;2022-07-03T09:48:31;2.50;;;1.27;;
14205;SDS011;7186;48.800;9.216;2022-07-03T09:51:09;1.73;;;1.30;;
14205;SDS011;7186;48.800;9.216;2022-07-03T09:53:48;1.30;;;1.20;;
14205;SDS011;7186;48.800;9.216;2022-07-03T09:56:13;3.43;;;1.17;;
14205;SDS011;7186;48.800;9.216;2022-07-03T09:58:39;1.93;;;1.33;;
14205;SDS011;7186;48.800;9.216;2022-07-03T10:01:19;1.20;;;1.20;;
14205;SDS011;7186;48.800;9.216;2022-07-03T10:03:46;1.10;;;1.10;;
14205;SDS011;7186;48.800;9.216;2022-07-03T10:06:12;1.87;;;1.50;;
14205;SDS011;7186;48.800;9.216;2022-07-03T10:08:38;3.53;;;1.30;;
14205;SDS011;7186;48.800;9.216;2022-07-03T10:11:04;2.73;;;1.50;;
14205;SDS011;7186;48.800;9.216;2022-07-03T10:13:31;1.50;;;1.40;;
14205;SDS011;7186;48.800;9.216;2022-07-03T10:15:57;1.17;;;1.17;;
14205;SDS011;7186;48.800;9.216;2022-07-03T10:18:22;1.20;;;1.10;;
14205;SDS011;7186;48.800;9.216;2022-07-03T10:20:52;1.27;;;1.17;;
14205;SDS011;7186;48.800;9.216;2022-07-03T10:23:21;1.43;;;1.30;;
14205;SDS011;7186;48.800;9.216;2022-07-03T10:25:47;3.43;;;1.50;;
14205;SDS011;7186;48.800;9.216;2022-07-03T10:28:13;1.23;;;1.17;;
14205;SDS011;7186;48.800;9.216;2022-07-03T10:30:39;1.20;;;1.20;;
14205;SDS011;7186;48.800;9.216;2022-07-03T10:33:05;2.00;;;1.20;;
14205;SDS011;7186;48.800;9.216;2022-07-03T10:35:34;1.50;;;1.40;;
14205;SDS011;7186;48.800;9.216;2022-07-03T10:43:46;1.87;;;1.73;;
14205;SDS011;7186;48.800;9.216;2022-07-03T10:46:30;2.03;;;1.47;;
14205;SDS011;7186;48.800;9.216;2022-07-03T10:51:29;1.50;;;1.40;;
14205;SDS011;7186;48.800;9.216;2022-07-03T10:59:22;1.80;;;1.70;;
14205;SDS011;7186;48.800;9.216;2022-07-03T11:01:47;1.67;;;1.53;;
14205;SDS011;7186;48.800;9.216;2022-07-03T11:04:12;2.47;;;1.30;;
14205;SDS011;7186;48.800;9.216;2022-07-03T11:09:09;2.87;;;1.37;;
14205;SDS011;7186;48.800;9.216;2022-07-03T11:14:27;1.60;;;1.50;;
14205;SDS011;7186;48.800;9.216;2022-07-03T11:19:36;2.27;;;1.23;;
14205;SDS011;7186;48.800;9.216;2022-07-03T11:22:02;2.73;;;1.50;;
14205;SDS011;7186;48.800;9.216;2022-07-03T11:29:39;2.53;;;1.57;;
14205;SDS011;7186;48.800;9.216;2022-07-03T11:32:25;1.40;;;1.30;;
14205;SDS011;7186;48.800;9.216;2022-07-03T11:34:55;2.10;;;1.50;;
14205;SDS011;7186;48.800;9.216;2022-07-03T11:37:21;1.50;;;1.40;;
14205;SDS011;7186;48.800;9.216;2022-07-03T11:39:48;7.50;;;1.70;;
14205;SDS011;7186;48.800;9.216;2022-07-03T11:42:14;4.37;;;1.60;;
14205;SDS011;7186;48.800;9.216;2022-07-03T11:44:39;1.40;;;1.30;;
14205;SDS011;7186;48.800;9.216;2022-07-03T11:47:05;1.40;;;1.30;;
14205;SDS011;7186;48.800;9.216;2022-07-03T11:49:30;1.50;;;1.40;;
14205;SDS011;7186;48.800;9.216;2022-07-03T11:54:23;1.53;;;1.43;;
14205;SDS011;7186;48.800;9.216;2022-07-03T11:56:48;3.57;;;1.50;;
14205;SDS011;7186;48.800;9.216;2022-07-03T11:59:13;1.50;;;1.40;;
14205;SDS011;7186;48.800;9.216;2022-07-03T12:01:39;1.30;;;1.20;;
14205;SDS011;7186;48.800;9.216;2022-07-03T12:09:17;1.47;;;1.40;;
14205;SDS011;7186;48.800;9.216;2022-07-03T12:11:51;1.63;;;1.53;;
14205;SDS011;7186;48.800;9.216;2022-07-03T12:14:17;1.30;;;1.23;;
14205;SDS011;7186;48.800;9.216;2022-07-03T12:16:42;2.03;;;1.40;;
14205;SDS011;7186;48.800;9.216;2022-07-03T12:19:07;2.00;;;1.40;;
14205;SDS011;7186;48.800;9.216;2022-07-03T12:21:36;1.50;;;1.40;;
14205;SDS011;7186;48.800;9.216;2022-07-03T12:24:08;1.53;;;1.43;;
14205;SDS011;7186;48.800;9.216;2022-07-03T12:26:34;1.20;;;1.20;;
14205;SDS011;7186;48.800;9.216;2022-07-03T12:29:07;1.70;;;1.50;;
14205;SDS011;7186;48.800;9.216;2022-07-03T12:31:33;1.37;;;1.27;;
14205;SDS011;7186;48.800;9.216;2022-07-03T12:33:59;2.30;;;1.50;;
14205;SDS011;7186;48.800;9.216;2022-07-03T12:36:25;1.60;;;1.50;;
14205;SDS011;7186;48.800;9.216;2022-07-03T12:38:55;1.50;;;1.40;;
14205;SDS011;7186;48.800;9.216;2022-07-03T12:41:21;1.80;;;1.30;;
14205;SDS011;7186;48.800;9.216;2022-07-03T12:43:47;1.53;;;1.43;;
14205;SDS011;7186;48.800;9.216;2022-07-03T12:46:16;1.23;;;1.23;;
14205;SDS011;7186;48.800;9.216;2022-07-03T12:48:45;1.37;;;1.13;;
14205;SDS011;7186;48.800;9.216;2022-07-03T12:51:10;1.40;;;1.30;;
14205;SDS011;7186;48.800;9.216;2022-07-03T12:53:35;1.40;;;1.30;;
14205;SDS011;7186;48.800;9.216;2022-07-03T12:56:01;2.10;;;1.40;;
14205;SDS011;7186;48.800;9.216;2022-07-03T12:58:27;1.50;;;1.40;;
14205;SDS011;7186;48.800;9.216;2022-07-03T13:03:52;1.83;;;1.30;;
14205;SDS011;7186;48.800;9.216;2022-07-03T13:06:19;1.73;;;1.40;;
14205;SDS011;7186;48.800;9.216;2022-07-03T13:08:57;2.20;;;1.30;;
14205;SDS011;7186;48.800;9.216;2022-07-03T13:13:51;2.30;;;1.30;;
14205;SDS011;7186;48.800;9.216;2022-07-03T13:16:26;1.77;;;1.43;;
14205;SDS011;7186;48.800;9.216;2022-07-03T13:19:00;1.77;;;1.60;;
14205;SDS011;7186;48.800;9.216;2022-07-03T13:21:28;1.60;;;1.50;;
14205;SDS011;7186;48.800;9.216;2022-07-03T13:23:55;1.60;;;1.50;;
14205;SDS011;7186;48.800;9.216;2022-07-03T13:26:21;1.50;;;1.40;;
14205;SDS011;7186;48.800;9.216;2022-07-03T13:28:46;2.13;;;1.70;;
14205;SDS011;7186;48.800;9.216;2022-07-03T13:31:11;3.33;;;1.77;;
14205;SDS011;7186;48.800;9.216;2022-07-03T13:33:37;1.80;;;1.60;;
14205;SDS011;7186;48.800;9.216;2022-07-03T13:36:02;2.03;;;1.80;;
14205;SDS011;7186;48.800;9.216;2022-07-03T13:38:27;2.07;;;1.53;;
14205;SDS011;7186;48.800;9.216;2022-07-03T13:40:52;1.90;;;1.70;;
14205;SDS011;7186;48.800;9.216;2022-07-03T13:43:18;2.20;;;2.00;;
14205;SDS011;7186;48.800;9.216;2022-07-03T13:45:43;1.70;;;1.47;;
14205;SDS011;7186;48.800;9.216;2022-07-03T13:48:08;3.50;;;2.07;;
14205;SDS011;7186;48.800;9.216;2022-07-03T13:50:33;2.27;;;1.60;;
14205;SDS011;7186;48.800;9.216;2022-07-03T13:52:59;3.07;;;1.73;;
14205;SDS011;7186;48.800;9.216;2022-07-03T13:55:24;1.80;;;1.70;;
14205;SDS011;7186;48.800;9.216;2022-07-03T13:57:49;1.67;;;1.50;;
14205;SDS011;7186;48.800;9.216;2022-07-03T14:00:15;1.63;;;1.50;;
14205;SDS011;7186;48.800;9.216;2022-07-03T14:02:41;3.40;;;1.53;;
14205;SDS011;7186;48.800;9.216;2022-07-03T14:05:06;2.13;;;1.50;;
14205;SDS011;7186;48.800;9.216;2022-07-03T14:07:31;1.80;;;1.40;;
14205;SDS011;7186;48.800;9.216;2022-07-03T14:09:57;1.53;;;1.43;;
14205;SDS011;7186;48.800;9.216;2022-07-03T14:12:22;1.37;;;1.27;;
14205;SDS011;7186;48.800;9.216;2022-07-03T14:14:47;1.63;;;1.47;;
14205;SDS011;7186;48.800;9.216;2022-07-03T14:17:13;4.33;;;1.70;;
14205;SDS011;7186;48.800;9.216;2022-07-03T14:19:38;1.73;;;1.60;;
14205;SDS011;7186;48.800;9.216;2022-07-03T14:22:03;3.90;;;1.70;;
14205;SDS011;7186;48.800;9.216;2022-07-03T14:24:28;3.80;;;1.60;;
14205;SDS011;7186;48.800;9.216;2022-07-03T14:26:54;3.17;;;1.77;;
14205;SDS011;7186;48.800;9.216;2022-07-03T14:29:37;1.70;;;1.60;;
14205;SDS011;7186;48.800;9.216;2022-07-03T14:32:21;2.30;;;1.47;;
14205;SDS011;7186;48.800;9.216;2022-07-03T14:34:57;1.60;;;1.50;;
14205;SDS011;7186;48.800;9.216;2022-07-03T14:37:23;1.60;;;1.50;;
14205;SDS011;7186;48.800;9.216;2022-07-03T14:39:48;1.47;;;1.40;;
14205;SDS011;7186;48.800;9.216;2022-07-03T14:42:14;3.03;;;1.40;;
14205;SDS011;7186;48.800;9.216;2022-07-03T14:44:40;1.73;;;1.43;;
14205;SDS011;7186;48.800;9.216;2022-07-03T14:47:06;1.60;;;1.50;;
14205;SDS011;7186;48.800;9.216;2022-07-03T14:49:31;1.57;;;1.40;;
14205;SDS011;7186;48.800;9.216;2022-07-03T14:52:00;1.70;;;1.60;;
14205;SDS011;7186;48.800;9.216;2022-07-03T14:54:25;1.30;;;1.20;;
14205;SDS011;7186;48.800;9.216;2022-07-03T14:56:52;1.53;;;1.43;;
14205;SDS011;7186;48.800;9.216;2022-07-03T14:59:19;3.33;;;1.60;;
14205;SDS011;7186;48.800;9.216;2022-07-03T15:01:48;1.90;;;1.70;;
14205;SDS011;7186;48.800;9.216;2022-07-03T15:04:30;1.42;;;1.30;;
14205;SDS011;7186;48.800;9.216;2022-07-03T15:06:58;1.67;;;1.58;;
14205;SDS011;7186;48.800;9.216;2022-07-03T15:09:28;2.95;;;1.77;;
14205;SDS011;7186;48.800;9.216;2022-07-03T15:11:55;2.92;;;1.75;;
14205;SDS011;7186;48.800;9.216;2022-07-03T15:14:42;2.55;;;1.73;;
14205;SDS011;7186;48.800;9.216;2022-07-03T15:17:07;1.60;;;1.50;;
14205;SDS011;7186;48.800;9.216;2022-07-03T15:19:33;1.63;;;1.40;;
14205;SDS011;7186;48.800;9.216;2022-07-03T15:21:58;1.92;;;1.70;;
14205;SDS011;7186;48.800;9.216;2022-07-03T15:24:24;1.45;;;1.35;;
14205;SDS011;7186;48.800;9.216;2022-07-03T15:26:52;2.67;;;1.30;;
14205;SDS011;7186;48.800;9.216;2022-07-03T15:29:18;1.40;;;1.30;;
14205;SDS011;7186;48.800;9.216;2022-07-03T15:31:43;1.45;;;1.38;;
14205;SDS011;7186;48.800;9.216;2022-07-03T15:34:10;1.70;;;1.60;;
14205;SDS011;7186;48.800;9.216;2022-07-03T15:39:27;4.37;;;1.70;;
14205;SDS011;7186;48.800;9.216;2022-07-03T15:42:00;2.97;;;1.87;;
14205;SDS011;7186;48.800;9.216;2022-07-03T15:44:30;1.70;;;1.60;;
14205;SDS011;7186;48.800;9.216;2022-07-03T15:47:20;3.90;;;1.80;;
14205;SDS011;7186;48.800;9.216;2022-07-03T15:49:42;9.33;;;1.80;;
14205;SDS011;7186;48.800;9.216;2022-07-03T15:52:16;2.00;;;1.40;;
14205;SDS011;7186;48.800;9.216;2022-07-03T15:57:08;2.77;;;1.57;;
14205;SDS011;7186;48.800;9.216;2022-07-03T15:59:35;2.57;;;1.50;;
14205;SDS011;7186;48.800;9.216;2022-07-03T16:02:04;1.77;;;1.50;;
14205;SDS011;7186;48.800;9.216;2022-07-03T16:04:54;3.07;;;1.60;;
14205;SDS011;7186;48.800;9.216;2022-07-03T16:07:21;1.47;;;1.37;;
14205;SDS011;7186;48.800;9.216;2022-07-03T16:09:47;1.47;;;1.37;;
14205;SDS011;7186;48.800;9.216;2022-07-03T16:12:13;1.37;;;1.30;;
14205;SDS011;7186;48.800;9.216;2022-07-03T16:14:48;2.70;;;1.43;;
14205;SDS011;7186;48.800;9.216;2022-07-03T16:17:17;2.10;;;1.70;;
14205;SDS011;7186;48.800;9.216;2022-07-03T16:19:46;1.40;;;1.30;;
14205;SDS011;7186;48.800;9.216;2022-07-03T16:22:12;1.73;;;1.40;;